Time;durP1;ratioP1;P1;durP2;ratioP2;P2;SDS_P1;SDS_P2;PMS_P1;PMS_P2;Temp;Humidity;BMP_temperature;BMP_pressure;BME280_temperature;BME280_humidity;BME280_pressure;Samples;Min_cycle;Max_cycle;Signal;HPM_P1;HPM_P2
2020/12/23 00:00:35;;;;;;;3.58;1.60;;;8.30;99.90;;;;;;5011558;28;20601;-26
2020/12/23 00:03:09;;;;;;;5.18;2.10;;;8.40;99.90;;;;;;5010968;28;20219;-26
2020/12/23 00:05:39;;;;;;;1.92;1.70;;;8.50;99.90;;;;;;5011593;28;20206;-26
2020/12/23 00:08:11;;;;;;;2.40;1.90;;;8.50;99.90;;;;;;5011310;28;20238;-26
2020/12/23 00:10:41;;;;;;;5.10;2.00;;;8.40;99.90;;;;;;5010893;28;20242;-26
2020/12/23 00:13:11;;;;;;;6.63;2.15;;;8.30;99.90;;;;;;5010516;28;20234;-26
2020/12/23 00:15:41;;;;;;;3.33;2.25;;;8.30;99.90;;;;;;5011649;28;20206;-25
2020/12/23 00:18:11;;;;;;;5.30;2.15;;;8.40;99.90;;;;;;5010673;28;20581;-26
2020/12/23 00:20:41;;;;;;;2.05;1.85;;;8.40;99.90;;;;;;5010285;28;20199;-26
2020/12/23 00:23:13;;;;;;;3.53;2.25;;;8.50;99.90;;;;;;5010020;28;20210;-26
2020/12/23 00:25:43;;;;;;;3.25;1.90;;;8.50;99.90;;;;;;5010382;28;20191;-26
2020/12/23 00:28:13;;;;;;;3.38;2.10;;;8.50;99.90;;;;;;5009701;28;20322;-26
2020/12/23 00:30:43;;;;;;;3.40;2.63;;;8.50;99.90;;;;;;5010442;28;20203;-27
2020/12/23 00:33:27;;;;;;;3.42;2.22;;;8.40;99.90;;;;;;5010054;28;20195;-26
2020/12/23 00:35:57;;;;;;;3.60;2.80;;;8.40;99.90;;;;;;5010538;28;20211;-26
2020/12/23 00:38:28;;;;;;;5.20;3.10;;;8.50;99.90;;;;;;5010402;28;20191;-26
2020/12/23 00:40:58;;;;;;;4.75;2.20;;;8.50;99.90;;;;;;5010037;28;20211;-26
2020/12/23 00:43:28;;;;;;;4.03;2.45;;;8.40;99.90;;;;;;5009732;28;20199;-26
2020/12/23 00:45:58;;;;;;;4.15;2.33;;;8.30;99.90;;;;;;5010368;28;20199;-26
2020/12/23 00:48:28;;;;;;;4.70;3.00;;;8.20;99.90;;;;;;5010090;28;20288;-27
2020/12/23 00:50:59;;;;;;;7.18;3.42;;;8.40;99.90;;;;;;5007363;28;20219;-26
2020/12/23 00:53:30;;;;;;;5.70;3.05;;;8.40;99.90;;;;;;5010079;28;20199;-27
2020/12/23 00:56:00;;;;;;;6.05;3.78;;;8.40;99.90;;;;;;5010048;28;20191;-27
2020/12/23 00:58:30;;;;;;;4.18;3.03;;;8.40;99.90;;;;;;5009894;28;20207;-26
2020/12/23 01:01:00;;;;;;;6.85;3.30;;;8.40;99.90;;;;;;5009384;28;20199;-26
2020/12/23 01:03:45;;;;;;;4.38;3.30;;;8.40;99.90;;;;;;5009634;28;20222;-26
2020/12/23 01:06:15;;;;;;;6.43;3.58;;;8.30;99.90;;;;;;5010643;28;20492;-26
2020/12/23 01:08:47;;;;;;;5.97;3.50;;;8.20;99.90;;;;;;5009856;28;20238;-26
2020/12/23 01:11:17;;;;;;;8.05;4.10;;;8.10;99.90;;;;;;5009085;28;20836;-26
2020/12/23 01:13:47;;;;;;;5.88;3.20;;;8.20;99.90;;;;;;5009642;28;20250;-26
2020/12/23 01:16:22;;;;;;;6.38;4.90;;;8.10;99.90;;;;;;5009894;28;20214;-26
2020/12/23 01:18:52;;;;;;;7.93;5.90;;;8.10;99.90;;;;;;5009609;28;20297;-27
2020/12/23 01:21:22;;;;;;;6.38;5.30;;;8.30;99.90;;;;;;5009571;28;20501;-27
2020/12/23 01:23:53;;;;;;;9.05;4.60;;;8.30;99.90;;;;;;5004389;28;20279;-27
2020/12/23 01:26:23;;;;;;;5.30;3.90;;;8.20;99.90;;;;;;5003720;28;20273;-27
2020/12/23 01:28:53;;;;;;;6.60;5.50;;;8.30;99.90;;;;;;5009407;28;20242;-27
2020/12/23 01:31:23;;;;;;;7.53;5.57;;;8.40;99.90;;;;;;5009587;28;20660;-27
2020/12/23 01:34:05;;;;;;;12.38;6.65;;;8.40;99.90;;;;;;5009262;28;20207;-28
2020/12/23 01:36:35;;;;;;;10.40;6.50;;;8.30;99.90;;;;;;5004274;28;20187;-27
2020/12/23 01:39:07;;;;;;;8.63;6.28;;;8.20;99.90;;;;;;5009078;28;20199;-26
2020/12/23 01:41:37;;;;;;;6.40;5.80;;;8.10;99.90;;;;;;5008621;28;20192;-27
2020/12/23 01:44:07;;;;;;;6.65;5.45;;;8.10;99.90;;;;;;5011084;28;20214;-27
2020/12/23 01:46:38;;;;;;;7.28;6.32;;;8.00;99.90;;;;;;5013846;28;20199;-27
2020/12/23 01:49:08;;;;;;;7.07;6.35;;;8.00;99.90;;;;;;5013138;28;20211;-27
2020/12/23 01:51:39;;;;;;;7.60;6.40;;;7.80;99.90;;;;;;5010163;28;20215;-26
2020/12/23 01:54:13;;;;;;;7.40;4.90;;;7.90;99.90;;;;;;5013083;28;20336;-26
2020/12/23 01:56:44;;;;;;;7.78;4.55;;;7.80;99.90;;;;;;5013093;28;20203;-26
2020/12/23 01:59:14;;;;;;;6.50;4.00;;;7.80;99.90;;;;;;5012805;28;20207;-25
2020/12/23 02:01:49;;;;;;;4.63;3.78;;;7.70;99.90;;;;;;5013174;28;20199;-26
2020/12/23 02:04:23;;;;;;;5.57;3.95;;;7.80;99.90;;;;;;5013213;28;20237;-26
2020/12/23 02:06:53;;;;;;;4.07;3.40;;;7.90;99.90;;;;;;5013188;28;20199;-26
2020/12/23 02:09:25;;;;;;;6.18;3.08;;;7.80;99.90;;;;;;5012608;28;20281;-26
2020/12/23 02:11:56;;;;;;;4.13;3.10;;;7.80;99.90;;;;;;5012856;28;20242;-26
2020/12/23 02:14:26;;;;;;;6.30;3.03;;;7.70;99.90;;;;;;5012397;28;20546;-26
2020/12/23 02:16:56;;;;;;;3.05;2.75;;;7.70;99.90;;;;;;5013162;28;20533;-26
2020/12/23 02:19:26;;;;;;;7.55;3.75;;;7.80;99.90;;;;;;5012898;28;20249;-27
2020/12/23 02:22:11;;;;;;;5.68;3.05;;;7.70;99.90;;;;;;5000718;28;20195;-26
2020/12/23 02:24:43;;;;;;;4.22;2.80;;;7.70;99.90;;;;;;4997761;28;20258;-26
2020/12/23 02:27:13;;;;;;;4.45;2.80;;;7.70;99.90;;;;;;5012283;28;20645;-27
2020/12/23 02:29:44;;;;;;;3.40;2.72;;;7.50;99.90;;;;;;5012454;28;20301;-26
2020/12/23 02:32:14;;;;;;;6.18;3.72;;;7.30;99.90;;;;;;5012958;28;20213;-26
2020/12/23 02:34:45;;;;;;;8.18;4.18;;;7.30;99.90;;;;;;5011965;28;20217;-26
2020/12/23 02:37:17;;;;;;;6.80;4.28;;;7.20;99.90;;;;;;5012505;28;20203;-26
2020/12/23 02:39:51;;;;;;;5.82;4.10;;;7.10;99.90;;;;;;5012224;28;20628;-26
2020/12/23 02:42:23;;;;;;;398.27;74.72;;;6.90;99.90;;;;;;5011933;28;20531;-26
2020/12/23 02:44:55;;;;;;;1701.80;273.85;;;7.10;99.90;;;;;;5011780;28;20191;-26
2020/12/23 02:47:25;;;;;;;5.53;4.40;;;7.00;99.90;;;;;;5012501;28;20203;-26
2020/12/23 02:49:55;;;;;;;8.75;4.68;;;6.80;99.90;;;;;;5012460;28;20230;-26
2020/12/23 02:52:25;;;;;;;6.18;4.55;;;6.60;99.90;;;;;;5012186;28;20211;-26
2020/12/23 02:54:56;;;;;;;5.45;4.28;;;6.50;99.90;;;;;;5011515;28;20207;-26
2020/12/23 02:57:26;;;;;;;5.80;4.55;;;6.50;99.90;;;;;;4992471;28;20199;-26
2020/12/23 02:59:56;;;;;;;4.30;3.80;;;6.50;99.90;;;;;;4992440;28;20243;-26
2020/12/23 03:02:26;;;;;;;5.88;4.78;;;6.40;99.90;;;;;;4992970;28;20219;-26
2020/12/23 03:05:02;;;;;;;5.55;4.57;;;6.30;99.90;;;;;;5001167;28;20285;-26
2020/12/23 03:07:33;;;;;;;8.75;5.10;;;6.20;99.90;;;;;;5012346;28;20281;-27
2020/12/23 03:10:05;;;;;;;8.18;5.03;;;6.10;99.90;;;;;;5010653;28;20540;-27
2020/12/23 03:12:35;;;;;;;5.47;4.72;;;6.10;99.90;;;;;;5002031;28;20259;-26
2020/12/23 03:15:05;;;;;;;6.10;4.97;;;6.00;99.90;;;;;;5011493;28;20566;-25
2020/12/23 03:17:36;;;;;;;6.53;5.45;;;6.00;99.90;;;;;;5011277;28;20187;-26
2020/12/23 03:20:06;;;;;;;7.95;6.05;;;6.00;99.90;;;;;;5011904;28;20587;-26
2020/12/23 03:22:37;;;;;;;10.18;5.97;;;6.00;99.90;;;;;;5011608;28;20199;-26
2020/12/23 03:25:08;;;;;;;7.05;5.70;;;5.90;99.90;;;;;;5008312;28;20200;-26
2020/12/23 03:27:38;;;;;;;6.63;6.05;;;5.90;99.90;;;;;;5008791;28;20209;-26
2020/12/23 03:30:08;;;;;;;7.30;6.57;;;5.80;99.90;;;;;;5011455;28;20591;-26
2020/12/23 03:32:38;;;;;;;22.45;8.77;;;5.80;99.90;;;;;;5011120;28;20207;-26
2020/12/23 03:35:20;;;;;;;9.50;8.50;;;5.70;99.90;;;;;;5010964;28;20269;-26
2020/12/23 03:37:50;;;;;;;378.50;66.28;;;5.70;99.90;;;;;;5011171;28;20196;-26
2020/12/23 03:40:21;;;;;;;17.25;10.05;;;5.70;99.90;;;;;;5004658;28;20605;-26
2020/12/23 03:42:52;;;;;;;9.98;8.55;;;5.80;99.90;;;;;;4991225;28;20946;-26
2020/12/23 03:45:22;;;;;;;9.35;8.35;;;5.70;99.90;;;;;;4998097;28;20215;-26
2020/12/23 03:47:52;;;;;;;13.90;12.57;;;5.60;99.90;;;;;;5005652;28;20262;-28
2020/12/23 03:50:22;;;;;;;18.02;12.23;;;5.50;99.90;;;;;;5011187;28;20239;-27
2020/12/23 03:52:52;;;;;;;15.20;10.90;;;5.50;99.90;;;;;;5010778;28;20194;-27
2020/12/23 03:55:23;;;;;;;12.25;10.75;;;5.50;99.90;;;;;;5010243;28;20195;-27
2020/12/23 03:57:54;;;;;;;11.80;10.65;;;5.50;99.90;;;;;;5007367;28;20203;-27
2020/12/23 04:00:24;;;;;;;16.98;13.48;;;5.50;99.90;;;;;;5008604;28;20549;-26
2020/12/23 04:02:54;;;;;;;11.95;10.73;;;5.40;99.90;;;;;;4994948;28;20278;-26
2020/12/23 04:05:37;;;;;;;13.20;11.07;;;5.30;99.90;;;;;;5005552;28;20192;-26
2020/12/23 04:08:07;;;;;;;14.98;12.35;;;5.30;99.90;;;;;;5007926;28;20215;-26
2020/12/23 04:10:39;;;;;;;14.88;12.02;;;5.30;99.90;;;;;;5009299;28;20242;-27
2020/12/23 04:13:09;;;;;;;13.43;11.80;;;5.30;99.90;;;;;;5010273;28;20199;-27
2020/12/23 04:15:39;;;;;;;12.43;11.13;;;5.20;99.90;;;;;;5010632;28;20521;-27
2020/12/23 04:18:10;;;;;;;12.30;10.82;;;5.10;99.90;;;;;;5007348;28;20249;-27
2020/12/23 04:20:41;;;;;;;15.05;10.93;;;5.10;99.90;;;;;;5008568;28;20199;-27
2020/12/23 04:23:12;;;;;;;13.88;11.27;;;5.00;99.90;;;;;;5008022;28;20202;-27
2020/12/23 04:25:43;;;;;;;1992.03;361.63;;;5.00;99.90;;;;;;5001630;28;20238;-27
2020/12/23 04:28:13;;;;;;;1415.45;265.38;;;5.00;99.90;;;;;;5006740;28;20269;-26
2020/12/23 04:30:45;;;;;;;1999.90;784.80;;;5.00;99.90;;;;;;5009922;28;20254;-26
2020/12/23 04:33:16;;;;;;;29.38;23.85;;;5.20;99.90;;;;;;5008017;28;20218;-26
2020/12/23 04:36:01;;;;;;;32.28;28.63;;;5.00;99.90;;;;;;5008288;28;20230;-25
2020/12/23 04:38:31;;;;;;;34.50;28.73;;;4.80;99.90;;;;;;5009165;28;20207;-26
2020/12/23 04:41:03;;;;;;;33.40;28.25;;;4.80;99.90;;;;;;5008300;28;20199;-26
2020/12/23 04:43:34;;;;;;;34.78;29.60;;;4.70;99.90;;;;;;5006751;28;20188;-26
2020/12/23 04:46:04;;;;;;;23.98;21.67;;;4.70;99.90;;;;;;5010436;28;20677;-25
2020/12/23 04:48:39;;;;;;;23.58;20.92;;;4.60;99.90;;;;;;5009931;28;20709;-26
2020/12/23 04:51:15;;;;;;;26.48;22.17;;;4.60;99.90;;;;;;5009897;28;20223;-26
2020/12/23 04:53:45;;;;;;;23.42;20.95;;;4.50;99.90;;;;;;5009092;28;20199;-26
2020/12/23 04:56:17;;;;;;;356.92;78.68;;;4.50;99.90;;;;;;5009494;28;20199;-27
2020/12/23 04:58:48;;;;;;;27.77;23.35;;;4.60;99.90;;;;;;5009296;28;20250;-26
2020/12/23 05:01:18;;;;;;;25.98;22.83;;;4.50;99.90;;;;;;5009222;28;20195;-27
2020/12/23 05:03:48;;;;;;;26.60;23.90;;;4.40;99.90;;;;;;5009150;28;20204;-25
2020/12/23 05:06:19;;;;;;;27.77;24.65;;;4.40;99.90;;;;;;5009920;28;20630;-26
2020/12/23 05:08:49;;;;;;;30.42;27.33;;;4.40;99.90;;;;;;5009722;28;20501;-26
2020/12/23 05:11:21;;;;;;;29.35;26.25;;;4.40;99.90;;;;;;5008831;28;20235;-26
2020/12/23 05:13:51;;;;;;;30.08;27.10;;;4.50;99.90;;;;;;5002525;28;20284;-26
2020/12/23 05:16:24;;;;;;;28.73;25.67;;;4.40;99.90;;;;;;4997252;28;20195;-26
2020/12/23 05:18:58;;;;;;;26.55;23.90;;;4.30;99.90;;;;;;5009593;28;20627;-27
2020/12/23 05:21:28;;;;;;;28.20;24.33;;;4.30;99.90;;;;;;5007676;28;20191;-27
2020/12/23 05:23:59;;;;;;;28.75;25.67;;;4.20;99.90;;;;;;5009478;28;20202;-27
2020/12/23 05:26:35;;;;;;;37.22;32.17;;;4.10;99.90;;;;;;4989587;28;20624;-27
2020/12/23 05:29:05;;;;;;;43.40;36.00;;;4.10;99.90;;;;;;5000237;28;20703;-28
2020/12/23 05:31:36;;;;;;;39.35;35.22;;;4.00;99.90;;;;;;5007683;28;20199;-27
2020/12/23 05:34:07;;;;;;;44.55;37.88;;;4.00;99.90;;;;;;5004480;28;20556;-28
2020/12/23 05:36:41;;;;;;;51.97;46.35;;;4.00;99.90;;;;;;5009669;28;20202;-27
2020/12/23 05:39:11;;;;;;;50.53;45.05;;;4.00;99.90;;;;;;5002527;28;20255;-26
2020/12/23 05:41:45;;;;;;;48.35;42.95;;;4.00;99.90;;;;;;4990287;28;20196;-26
2020/12/23 05:44:21;;;;;;;52.08;45.10;;;3.90;99.90;;;;;;4996416;28;20192;-27
2020/12/23 05:46:52;;;;;;;50.15;42.08;;;3.90;99.90;;;;;;5009647;28;20195;-26
2020/12/23 05:49:24;;;;;;;45.25;40.25;;;3.90;99.90;;;;;;5009083;28;20714;-27
2020/12/23 05:51:54;;;;;;;45.00;40.10;;;3.90;99.90;;;;;;5008855;28;20227;-27
2020/12/23 05:54:24;;;;;;;41.15;36.70;;;3.90;99.90;;;;;;5009086;28;20195;-27
2020/12/23 05:56:55;;;;;;;39.88;35.95;;;3.80;99.90;;;;;;5008791;28;20219;-27
2020/12/23 05:59:25;;;;;;;37.30;33.58;;;3.80;99.90;;;;;;5008152;28;20609;-27
2020/12/23 06:02:00;;;;;;;37.90;32.20;;;3.90;99.90;;;;;;5008989;28;20219;-27
2020/12/23 06:04:32;;;;;;;36.85;32.95;;;3.80;99.90;;;;;;5008838;28;20263;-25
2020/12/23 06:07:06;;;;;;;35.45;31.75;;;3.80;99.90;;;;;;5009063;28;20195;-25
2020/12/23 06:09:39;;;;;;;32.85;29.00;;;3.70;99.90;;;;;;5008538;28;20233;-26
2020/12/23 06:12:21;;;;;;;31.40;27.98;;;3.70;99.90;;;;;;5008558;28;20254;-27
2020/12/23 06:14:56;;;;;;;29.35;26.38;;;3.70;99.90;;;;;;5008661;28;20675;-27
2020/12/23 06:17:27;;;;;;;29.65;26.50;;;3.70;99.90;;;;;;5009303;28;20194;-27
2020/12/23 06:20:00;;;;;;;30.23;27.05;;;3.60;99.90;;;;;;5008822;28;20199;-26
2020/12/23 06:22:38;;;;;;;29.38;26.38;;;3.60;99.90;;;;;;5007201;28;20191;-26
2020/12/23 06:25:08;;;;;;;31.42;28.33;;;3.60;99.90;;;;;;5008813;28;20291;-27
2020/12/23 06:27:43;;;;;;;32.50;29.10;;;3.50;99.90;;;;;;5004102;28;20208;-27
2020/12/23 06:30:13;;;;;;;32.13;28.90;;;3.50;99.90;;;;;;4994633;28;20230;-26
2020/12/23 06:32:44;;;;;;;32.70;29.20;;;3.50;99.90;;;;;;5011459;28;20203;-26
2020/12/23 06:35:14;;;;;;;31.75;28.52;;;3.50;99.90;;;;;;5012926;28;20202;-26
2020/12/23 06:37:44;;;;;;;29.42;26.38;;;3.40;99.90;;;;;;5004701;28;20246;-27
2020/12/23 06:40:14;;;;;;;31.77;28.27;;;3.40;99.90;;;;;;5011304;28;20196;-27
2020/12/23 06:42:50;;;;;;;31.55;28.25;;;3.50;99.90;;;;;;4992353;28;20603;-27
2020/12/23 06:45:20;;;;;;;31.52;28.42;;;3.50;99.90;;;;;;4992932;28;20613;-27
2020/12/23 06:47:50;;;;;;;30.30;27.30;;;3.40;99.90;;;;;;4992739;28;20212;-26
2020/12/23 06:50:35;;;;;;;34.60;30.85;;;3.30;99.90;;;;;;4992591;28;20381;-26
2020/12/23 06:53:05;;;;;;;32.15;28.60;;;3.30;99.90;;;;;;5003212;28;20211;-27
2020/12/23 06:55:46;;;;;;;31.40;28.45;;;3.30;99.90;;;;;;5004436;28;20284;-27
2020/12/23 06:58:39;;;;;;;37.83;33.08;;;3.30;99.90;;;;;;4992211;28;20196;-27
2020/12/23 07:01:20;;;;;;;37.63;33.65;;;3.20;99.90;;;;;;4994761;28;20256;-27
2020/12/23 07:03:50;;;;;;;40.00;35.63;;;3.30;99.90;;;;;;5009224;28;20218;-27
2020/12/23 07:06:31;;;;;;;37.67;33.80;;;3.20;99.90;;;;;;5004357;28;20196;-27
2020/12/23 07:09:06;;;;;;;38.67;34.47;;;3.10;99.90;;;;;;4993632;28;20212;-27
2020/12/23 07:11:38;;;;;;;39.03;35.00;;;3.00;99.90;;;;;;5000002;28;20249;-27
2020/12/23 07:14:15;;;;;;;36.38;32.50;;;3.10;99.90;;;;;;5011622;28;20203;-27
2020/12/23 07:16:45;;;;;;;38.50;32.35;;;3.00;99.90;;;;;;5009226;28;20258;-27
2020/12/23 07:19:17;;;;;;;39.80;34.30;;;3.00;99.90;;;;;;5008394;28;20207;-27
2020/12/23 07:21:50;;;;;;;35.92;31.92;;;3.00;99.90;;;;;;5011628;28;20191;-26
2020/12/23 07:24:23;;;;;;;33.83;30.23;;;3.00;99.90;;;;;;5010567;28;20187;-27
2020/12/23 07:26:54;;;;;;;35.33;31.60;;;3.00;99.90;;;;;;5000059;28;20536;-27
2020/12/23 07:29:34;;;;;;;37.65;32.83;;;3.00;99.90;;;;;;5011078;28;20265;-27
2020/12/23 07:32:06;;;;;;;36.60;32.78;;;3.10;99.90;;;;;;5001141;28;20286;-26
2020/12/23 07:34:38;;;;;;;42.13;36.13;;;3.10;99.90;;;;;;5006274;28;20601;-27
2020/12/23 07:37:09;;;;;;;37.15;33.20;;;3.10;99.90;;;;;;4991626;28;20207;-27
2020/12/23 07:39:40;;;;;;;37.20;33.08;;;3.10;99.90;;;;;;5000824;28;20192;-27
2020/12/23 07:42:11;;;;;;;39.83;33.75;;;3.00;99.90;;;;;;5008020;28;20246;-27
2020/12/23 07:44:42;;;;;;;35.65;32.15;;;3.00;99.90;;;;;;5028414;28;20206;-27
2020/12/23 07:47:12;;;;;;;35.25;31.50;;;3.00;99.90;;;;;;5002334;28;20228;-27
2020/12/23 07:49:42;;;;;;;37.00;31.55;;;3.10;99.90;;;;;;4991229;28;20730;-27
2020/12/23 07:52:12;;;;;;;34.40;30.75;;;3.20;99.90;;;;;;5004259;28;20227;-27
2020/12/23 07:54:42;;;;;;;34.65;30.95;;;3.10;99.90;;;;;;5007336;28;20548;-27
2020/12/23 07:57:27;;;;;;;35.90;32.17;;;3.00;99.90;;;;;;4997952;28;20206;-27
2020/12/23 08:00:05;;;;;;;35.22;31.42;;;3.00;99.90;;;;;;4991561;28;20204;-27
2020/12/23 08:02:35;;;;;;;33.85;30.30;;;3.10;99.90;;;;;;5007118;28;20201;-27
2020/12/23 08:05:05;;;;;;;36.47;32.53;;;3.10;99.90;;;;;;5008684;28;20203;-27
2020/12/23 08:07:39;;;;;;;39.85;31.60;;;3.00;99.90;;;;;;5010138;28;20203;-26
2020/12/23 08:10:11;;;;;;;35.65;30.85;;;3.10;99.90;;;;;;5010339;28;20554;-26
2020/12/23 08:12:42;;;;;;;36.80;32.30;;;3.00;99.90;;;;;;5009931;28;20562;-26
2020/12/23 08:15:16;;;;;;;40.95;32.35;;;2.90;99.90;;;;;;5010536;28;20242;-26
2020/12/23 08:17:46;;;;;;;39.75;30.45;;;3.00;99.90;;;;;;5009935;28;20187;-26
2020/12/23 08:20:17;;;;;;;35.55;31.73;;;2.90;99.90;;;;;;5010870;28;20211;-27
2020/12/23 08:22:47;;;;;;;37.38;31.30;;;2.90;99.90;;;;;;5010065;28;20262;-27
2020/12/23 08:25:19;;;;;;;36.60;32.60;;;2.80;99.90;;;;;;4999767;28;20204;-26
2020/12/23 08:27:51;;;;;;;38.15;32.30;;;2.80;99.90;;;;;;4990406;28;20212;-27
2020/12/23 08:30:23;;;;;;;37.70;33.30;;;2.90;99.90;;;;;;4990998;28;20228;-26
2020/12/23 08:33:01;;;;;;;35.80;30.80;;;2.90;99.90;;;;;;5006438;28;20241;-26
2020/12/23 08:35:35;;;;;;;39.92;30.92;;;3.00;99.90;;;;;;5004369;28;20195;-26
2020/12/23 08:38:05;;;;;;;46.25;33.22;;;3.00;99.90;;;;;;4990490;28;20204;-26
2020/12/23 08:40:44;;;;;;;50.55;31.23;;;3.10;99.90;;;;;;4994327;28;20213;-27
2020/12/23 08:43:21;;;;;;;93.60;35.63;;;3.20;99.90;;;;;;5009781;28;20190;-28
2020/12/23 08:45:53;;;;;;;33.10;25.77;;;3.30;99.90;;;;;;5007286;28;20191;-27
2020/12/23 08:48:24;;;;;;;76.70;28.50;;;3.30;99.90;;;;;;5009803;28;20263;-26
2020/12/23 08:50:55;;;;;;;41.47;24.77;;;3.50;99.90;;;;;;5006017;28;20238;-27
2020/12/23 08:53:36;;;;;;;54.20;26.95;;;3.50;99.90;;;;;;4990607;28;20192;-26
2020/12/23 08:56:22;;;;;;;90.88;31.85;;;3.70;99.90;;;;;;5006324;28;20289;-26
2020/12/23 08:58:58;;;;;;;75.85;35.28;;;3.80;99.90;;;;;;5000592;28;20229;-26
2020/12/23 09:01:30;;;;;;;88.93;40.97;;;3.80;99.90;;;;;;5007690;28;20195;-26
2020/12/23 09:04:03;;;;;;;52.58;32.42;;;4.00;99.90;;;;;;5003057;28;20210;-27
2020/12/23 09:06:34;;;;;;;52.83;29.10;;;4.00;99.90;;;;;;4991357;28;20647;-27
2020/12/23 09:09:13;;;;;;;64.30;29.17;;;4.00;99.90;;;;;;4990299;28;20199;-27
2020/12/23 09:11:45;;;;;;;67.57;30.20;;;4.20;99.90;;;;;;4999911;28;20895;-27
2020/12/23 09:14:22;;;;;;;56.47;28.90;;;4.30;99.90;;;;;;5009531;28;20195;-27
2020/12/23 09:17:07;;;;;;;45.92;26.38;;;4.30;99.90;;;;;;5007421;28;20252;-26
2020/12/23 09:19:49;;;;;;;38.83;26.42;;;4.30;99.90;;;;;;4990057;28;20191;-27
2020/12/23 09:22:33;;;;;;;36.40;22.88;;;4.30;99.90;;;;;;5005339;28;20675;-27
2020/12/23 09:25:22;;;;;;;42.28;26.52;;;4.40;99.90;;;;;;5008668;28;20218;-27
2020/12/23 09:27:54;;;;;;;42.72;21.00;;;4.50;99.90;;;;;;4999194;28;20191;-27
2020/12/23 09:30:35;;;;;;;37.22;21.88;;;4.60;99.90;;;;;;5009809;28;20261;-27
2020/12/23 09:33:07;;;;;;;34.70;19.80;;;4.60;99.90;;;;;;5009560;28;20638;-26
2020/12/23 09:35:38;;;;;;;30.48;15.88;;;4.60;99.90;;;;;;5009490;28;20229;-26
2020/12/23 09:38:10;;;;;;;29.92;14.25;;;4.60;99.90;;;;;;4994376;28;20206;-26
2020/12/23 09:40:42;;;;;;;39.70;15.75;;;4.70;99.90;;;;;;5007632;28;20257;-27
2020/12/23 09:43:14;;;;;;;38.38;16.20;;;4.70;99.90;;;;;;5006085;28;20188;-26
2020/12/23 09:45:44;;;;;;;46.72;16.35;;;4.80;99.90;;;;;;4994034;28;20196;-26
2020/12/23 09:48:16;;;;;;;36.40;14.60;;;4.80;99.90;;;;;;4993857;28;20258;-27
2020/12/23 09:50:47;;;;;;;24.65;14.35;;;4.80;99.90;;;;;;4990064;28;20247;-27
2020/12/23 09:53:17;;;;;;;34.40;14.10;;;4.80;99.90;;;;;;5003153;28;20222;-27
2020/12/23 09:55:48;;;;;;;32.45;14.40;;;4.90;99.90;;;;;;5009108;28;20261;-27
2020/12/23 09:58:18;;;;;;;27.65;15.27;;;4.90;99.90;;;;;;5008784;28;20253;-27
2020/12/23 10:00:51;;;;;;;41.20;19.20;;;4.90;99.90;;;;;;5009634;28;20207;-27
2020/12/23 10:03:22;;;;;;;50.28;18.48;;;4.80;99.90;;;;;;5009435;28;20525;-27
2020/12/23 10:05:52;;;;;;;33.35;14.52;;;5.00;99.90;;;;;;5013512;28;20643;-27
2020/12/23 10:08:22;;;;;;;21.65;13.05;;;5.00;99.90;;;;;;5013126;28;20238;-27
2020/12/23 10:10:52;;;;;;;29.00;14.30;;;5.00;99.90;;;;;;5012922;28;20242;-27
2020/12/23 10:13:22;;;;;;;30.48;15.52;;;4.90;99.90;;;;;;5011024;28;20563;-28
2020/12/23 10:15:52;;;;;;;39.45;15.35;;;4.90;99.90;;;;;;5012994;28;20228;-27
2020/12/23 10:18:23;;;;;;;29.02;15.80;;;5.00;99.90;;;;;;5012423;28;20202;-26
2020/12/23 10:20:53;;;;;;;22.23;13.43;;;5.00;99.90;;;;;;5012820;28;20290;-26
2020/12/23 10:23:23;;;;;;;20.05;12.35;;;5.00;99.90;;;;;;5013105;28;20663;-26
2020/12/23 10:25:53;;;;;;;20.58;12.75;;;4.90;99.90;;;;;;5012467;28;20257;-30
2020/12/23 10:28:25;;;;;;;20.00;12.00;;;5.00;99.90;;;;;;5010931;28;20281;-26
2020/12/23 10:30:55;;;;;;;17.45;11.70;;;4.90;99.90;;;;;;5017623;28;20211;-27
2020/12/23 10:33:27;;;;;;;16.85;12.10;;;4.90;99.90;;;;;;5006749;28;20242;-27
2020/12/23 10:35:57;;;;;;;19.27;12.00;;;4.90;99.90;;;;;;5000790;28;20208;-27
2020/12/23 10:38:28;;;;;;;18.83;12.82;;;5.00;99.90;;;;;;5008723;28;20203;-27
2020/12/23 10:40:58;;;;;;;16.88;12.20;;;5.10;99.90;;;;;;5012506;28;20199;-27
2020/12/23 10:43:28;;;;;;;16.90;11.70;;;5.00;99.90;;;;;;5011881;28;20204;-27
2020/12/23 10:45:59;;;;;;;17.35;11.65;;;5.10;99.90;;;;;;5009757;28;20227;-27
2020/12/23 10:48:30;;;;;;;15.52;10.55;;;5.20;99.90;;;;;;5002308;28;20200;-27
2020/12/23 10:51:03;;;;;;;22.23;12.77;;;5.20;99.90;;;;;;4994247;28;20601;-28
2020/12/23 10:53:33;;;;;;;19.60;12.38;;;5.10;99.90;;;;;;5005550;28;20191;-27
2020/12/23 10:56:03;;;;;;;19.55;13.10;;;5.00;99.90;;;;;;5011107;28;20195;-27
2020/12/23 10:58:33;;;;;;;14.82;11.45;;;5.00;99.90;;;;;;5002686;28;20192;-26
2020/12/23 11:01:05;;;;;;;19.67;12.90;;;5.10;99.90;;;;;;4992619;28;20278;-26
2020/12/23 11:03:36;;;;;;;18.40;12.50;;;5.10;99.90;;;;;;5005930;28;20215;-27
2020/12/23 11:06:07;;;;;;;27.45;14.32;;;5.20;99.90;;;;;;5012258;28;20191;-27
2020/12/23 11:08:37;;;;;;;18.98;13.32;;;5.20;99.90;;;;;;5011019;28;20727;-27
2020/12/23 11:11:07;;;;;;;21.70;12.32;;;5.10;99.90;;;;;;5011504;28;20469;-27
2020/12/23 11:13:37;;;;;;;20.40;13.27;;;5.10;99.90;;;;;;5011345;28;20764;-28
2020/12/23 11:16:07;;;;;;;20.30;13.10;;;5.10;99.90;;;;;;5011684;28;20200;-27
2020/12/23 11:18:42;;;;;;;17.55;11.60;;;5.10;99.90;;;;;;5009627;28;20558;-26
2020/12/23 11:21:13;;;;;;;20.60;11.98;;;5.10;99.90;;;;;;5011279;28;20199;-26
2020/12/23 11:23:43;;;;;;;17.48;11.85;;;5.10;99.90;;;;;;5011876;28;20196;-27
2020/12/23 11:26:17;;;;;;;19.85;12.65;;;5.10;99.90;;;;;;4998096;28;20555;-26
2020/12/23 11:28:55;;;;;;;18.33;12.55;;;5.00;99.90;;;;;;5003845;28;20214;-26
2020/12/23 11:31:25;;;;;;;23.83;13.65;;;5.00;99.90;;;;;;5003541;28;20278;-26
2020/12/23 11:33:57;;;;;;;21.42;13.20;;;5.10;99.90;;;;;;5010866;28;20273;-27
2020/12/23 11:36:27;;;;;;;18.23;12.05;;;5.00;99.90;;;;;;5008824;28;20187;-26
2020/12/23 11:39:00;;;;;;;19.58;11.35;;;5.00;99.90;;;;;;5011151;28;20794;-27
2020/12/23 11:41:30;;;;;;;17.98;11.95;;;5.00;99.90;;;;;;5011170;28;20559;-26
2020/12/23 11:44:00;;;;;;;21.20;11.18;;;5.00;99.90;;;;;;5011206;28;20313;-27
2020/12/23 11:46:31;;;;;;;20.45;12.80;;;5.00;99.90;;;;;;5001309;28;20270;-28
2020/12/23 11:49:02;;;;;;;20.55;11.93;;;5.10;99.90;;;;;;5001251;28;20237;-27
2020/12/23 11:51:34;;;;;;;15.15;11.10;;;5.10;99.90;;;;;;5010193;28;20243;-26
2020/12/23 11:54:04;;;;;;;16.40;12.48;;;5.10;99.90;;;;;;4996033;28;20257;-26
2020/12/23 11:56:34;;;;;;;22.33;13.60;;;5.10;99.90;;;;;;5008615;28;20524;-27
2020/12/23 11:59:05;;;;;;;22.02;12.20;;;5.10;99.90;;;;;;5005007;28;20225;-34
2020/12/23 12:01:35;;;;;;;17.48;12.63;;;5.10;99.90;;;;;;5009209;28;20203;-27
2020/12/23 12:04:06;;;;;;;23.67;14.02;;;5.10;99.90;;;;;;5011084;28;20199;-27
2020/12/23 12:06:36;;;;;;;25.15;14.73;;;5.10;99.90;;;;;;5011030;28;20195;-27
2020/12/23 12:09:07;;;;;;;29.98;14.45;;;5.10;99.90;;;;;;5011042;28;20287;-28
2020/12/23 12:11:37;;;;;;;22.33;12.98;;;5.10;99.90;;;;;;4994664;28;20278;-27
2020/12/23 12:14:07;;;;;;;21.10;13.23;;;5.00;99.90;;;;;;4991012;28;20615;-27
2020/12/23 12:16:37;;;;;;;17.95;11.98;;;4.90;99.90;;;;;;4991422;28;20200;-27
2020/12/23 12:19:10;;;;;;;24.73;13.43;;;4.90;99.90;;;;;;5008829;28;20250;-27
2020/12/23 12:21:40;;;;;;;21.65;13.10;;;4.90;99.90;;;;;;5010783;28;20199;-27
2020/12/23 12:24:10;;;;;;;24.35;13.52;;;4.90;99.90;;;;;;5010829;28;20681;-27
2020/12/23 12:26:40;;;;;;;20.23;13.20;;;4.90;99.90;;;;;;5007691;28;20208;-27
2020/12/23 12:29:11;;;;;;;19.33;13.18;;;4.90;99.90;;;;;;5009559;28;20202;-27
2020/12/23 12:31:41;;;;;;;24.10;14.32;;;4.90;99.90;;;;;;5010379;28;20843;-27
2020/12/23 12:34:12;;;;;;;18.38;11.43;;;4.90;99.90;;;;;;5009575;28;20234;-27
2020/12/23 12:36:42;;;;;;;17.90;12.73;;;4.90;99.90;;;;;;5010539;28;20195;-27
2020/12/23 12:39:16;;;;;;;18.52;10.80;;;4.90;99.90;;;;;;4999518;28;20251;-26
2020/12/23 12:41:46;;;;;;;16.35;10.82;;;4.90;99.90;;;;;;5005586;28;20203;-27
2020/12/23 12:44:16;;;;;;;21.63;12.18;;;4.80;99.90;;;;;;5008380;28;20265;-27
2020/12/23 12:46:48;;;;;;;24.33;11.10;;;4.80;99.90;;;;;;4990814;28;20282;-27
2020/12/23 12:49:20;;;;;;;15.95;9.68;;;4.80;99.90;;;;;;5010110;28;20195;-27
2020/12/23 12:51:50;;;;;;;17.05;10.02;;;4.60;99.90;;;;;;4997803;28;20223;-27
2020/12/23 12:54:20;;;;;;;23.88;11.23;;;4.60;99.90;;;;;;4994944;28;20206;-27
2020/12/23 12:56:50;;;;;;;18.20;10.07;;;4.60;99.90;;;;;;5008287;28;20199;-27
2020/12/23 12:59:20;;;;;;;14.90;9.75;;;4.60;99.90;;;;;;5003984;28;20282;-25
2020/12/23 13:01:50;;;;;;;19.75;9.85;;;4.50;99.90;;;;;;5009690;28;20211;-26
2020/12/23 13:04:22;;;;;;;24.52;10.38;;;4.50;99.90;;;;;;4998722;28;20247;-26
2020/12/23 13:06:52;;;;;;;11.68;8.90;;;4.50;99.90;;;;;;5002439;28;20258;-27